sensor_id;sensor_type;location;lat;lon;timestamp;P1;durP1;ratioP1;P2;durP2;ratioP2
81648;SDS011;71057;51.436;6.768;2023-11-21T00:02:05;16.13;;;8.93;;
81648;SDS011;71057;51.436;6.768;2023-11-21T00:04:30;14.80;;;7.53;;
81648;SDS011;71057;51.436;6.768;2023-11-21T00:06:55;15.13;;;8.07;;
81648;SDS011;71057;51.436;6.768;2023-11-21T00:09:21;12.80;;;8.73;;
81648;SDS011;71057;51.436;6.768;2023-11-21T00:11:46;16.20;;;8.55;;
81648;SDS011;71057;51.436;6.768;2023-11-21T00:14:12;16.27;;;8.90;;
81648;SDS011;71057;51.436;6.768;2023-11-21T00:16:37;20.08;;;9.30;;
81648;SDS011;71057;51.436;6.768;2023-11-21T00:19:02;18.00;;;10.57;;
81648;SDS011;71057;51.436;6.768;2023-11-21T00:21:28;20.08;;;9.48;;
81648;SDS011;71057;51.436;6.768;2023-11-21T00:23:53;17.98;;;9.05;;
81648;SDS011;71057;51.436;6.768;2023-11-21T00:26:18;15.88;;;9.05;;
81648;SDS011;71057;51.436;6.768;2023-11-21T00:28:44;17.10;;;9.05;;
81648;SDS011;71057;51.436;6.768;2023-11-21T00:31:10;19.02;;;9.80;;
81648;SDS011;71057;51.436;6.768;2023-11-21T00:33:35;18.45;;;9.45;;
81648;SDS011;71057;51.436;6.768;2023-11-21T00:36:01;11.37;;;6.90;;
81648;SDS011;71057;51.436;6.768;2023-11-21T00:38:26;14.20;;;8.15;;
81648;SDS011;71057;51.436;6.768;2023-11-21T00:40:52;16.17;;;9.10;;
81648;SDS011;71057;51.436;6.768;2023-11-21T00:43:20;16.13;;;8.75;;
81648;SDS011;71057;51.436;6.768;2023-11-21T00:45:46;18.10;;;9.23;;
81648;SDS011;71057;51.436;6.768;2023-11-21T00:48:14;16.15;;;8.88;;
81648;SDS011;71057;51.436;6.768;2023-11-21T00:50:39;18.63;;;9.80;;
81648;SDS011;71057;51.436;6.768;2023-11-21T00:53:05;15.55;;;7.70;;
81648;SDS011;71057;51.436;6.768;2023-11-21T00:55:32;14.07;;;8.40;;
81648;SDS011;71057;51.436;6.768;2023-11-21T00:57:57;17.95;;;9.50;;
81648;SDS011;71057;51.436;6.768;2023-11-21T01:00:23;17.73;;;10.25;;
81648;SDS011;71057;51.436;6.768;2023-11-21T01:02:48;15.27;;;8.30;;
81648;SDS011;71057;51.436;6.768;2023-11-21T01:05:14;17.27;;;7.97;;
81648;SDS011;71057;51.436;6.768;2023-11-21T01:07:39;17.00;;;9.05;;
81648;SDS011;71057;51.436;6.768;2023-11-21T01:10:04;18.30;;;8.38;;
81648;SDS011;71057;51.436;6.768;2023-11-21T01:12:32;16.73;;;9.18;;
81648;SDS011;71057;51.436;6.768;2023-11-21T01:14:59;15.80;;;8.50;;
81648;SDS011;71057;51.436;6.768;2023-11-21T01:17:25;16.45;;;8.18;;
81648;SDS011;71057;51.436;6.768;2023-11-21T01:19:51;15.55;;;8.75;;
81648;SDS011;71057;51.436;6.768;2023-11-21T01:22:16;14.38;;;8.32;;
81648;SDS011;71057;51.436;6.768;2023-11-21T01:24:42;14.80;;;8.73;;
81648;SDS011;71057;51.436;6.768;2023-11-21T01:27:08;13.02;;;7.82;;
81648;SDS011;71057;51.436;6.768;2023-11-21T01:29:33;11.93;;;7.97;;
81648;SDS011;71057;51.436;6.768;2023-11-21T01:32:00;15.73;;;8.77;;
81648;SDS011;71057;51.436;6.768;2023-11-21T01:34:27;13.52;;;8.27;;
81648;SDS011;71057;51.436;6.768;2023-11-21T01:36:53;13.68;;;8.27;;
81648;SDS011;71057;51.436;6.768;2023-11-21T01:39:18;14.13;;;8.27;;
81648;SDS011;71057;51.436;6.768;2023-11-21T01:41:48;12.85;;;8.13;;
81648;SDS011;71057;51.436;6.768;2023-11-21T01:44:14;12.07;;;7.75;;
81648;SDS011;71057;51.436;6.768;2023-11-21T01:46:39;13.30;;;7.37;;
81648;SDS011;71057;51.436;6.768;2023-11-21T01:49:06;13.68;;;7.65;;
81648;SDS011;71057;51.436;6.768;2023-11-21T01:51:34;9.70;;;7.43;;
81648;SDS011;71057;51.436;6.768;2023-11-21T01:53:59;13.32;;;8.15;;
81648;SDS011;71057;51.436;6.768;2023-11-21T01:56:25;11.10;;;7.40;;
81648;SDS011;71057;51.436;6.768;2023-11-21T01:58:51;13.77;;;7.97;;
81648;SDS011;71057;51.436;6.768;2023-11-21T02:01:16;12.10;;;7.10;;
81648;SDS011;71057;51.436;6.768;2023-11-21T02:03:43;12.73;;;8.23;;
81648;SDS011;71057;51.436;6.768;2023-11-21T02:06:08;13.73;;;7.33;;
81648;SDS011;71057;51.436;6.768;2023-11-21T02:08:34;14.20;;;8.38;;
81648;SDS011;71057;51.436;6.768;2023-11-21T02:10:59;13.27;;;8.50;;
81648;SDS011;71057;51.436;6.768;2023-11-21T02:13:24;15.30;;;8.43;;
81648;SDS011;71057;51.436;6.768;2023-11-21T02:15:49;13.50;;;7.53;;
81648;SDS011;71057;51.436;6.768;2023-11-21T02:18:17;14.30;;;8.18;;
81648;SDS011;71057;51.436;6.768;2023-11-21T02:20:42;15.25;;;8.77;;
81648;SDS011;71057;51.436;6.768;2023-11-21T02:23:08;16.95;;;10.05;;
81648;SDS011;71057;51.436;6.768;2023-11-21T02:25:33;16.17;;;9.07;;
81648;SDS011;71057;51.436;6.768;2023-11-21T02:27:59;15.05;;;8.77;;
81648;SDS011;71057;51.436;6.768;2023-11-21T02:30:26;15.57;;;8.27;;
81648;SDS011;71057;51.436;6.768;2023-11-21T02:32:58;13.40;;;8.77;;
81648;SDS011;71057;51.436;6.768;2023-11-21T02:35:23;12.57;;;8.60;;
81648;SDS011;71057;51.436;6.768;2023-11-21T02:37:51;18.83;;;9.18;;
81648;SDS011;71057;51.436;6.768;2023-11-21T02:40:17;15.15;;;9.35;;
81648;SDS011;71057;51.436;6.768;2023-11-21T02:42:43;18.80;;;9.35;;
81648;SDS011;71057;51.436;6.768;2023-11-21T02:45:12;16.02;;;8.60;;
81648;SDS011;71057;51.436;6.768;2023-11-21T02:47:39;19.58;;;11.20;;
81648;SDS011;71057;51.436;6.768;2023-11-21T02:50:04;16.80;;;9.80;;
81648;SDS011;71057;51.436;6.768;2023-11-21T02:52:32;14.93;;;8.70;;
81648;SDS011;71057;51.436;6.768;2023-11-21T02:54:58;19.88;;;9.60;;
81648;SDS011;71057;51.436;6.768;2023-11-21T02:57:23;17.13;;;9.18;;
81648;SDS011;71057;51.436;6.768;2023-11-21T02:59:49;17.83;;;9.70;;
81648;SDS011;71057;51.436;6.768;2023-11-21T03:02:15;18.17;;;9.07;;
81648;SDS011;71057;51.436;6.768;2023-11-21T03:04:40;18.70;;;9.10;;
81648;SDS011;71057;51.436;6.768;2023-11-21T03:07:07;14.18;;;9.30;;
81648;SDS011;71057;51.436;6.768;2023-11-21T03:09:33;16.30;;;8.73;;
81648;SDS011;71057;51.436;6.768;2023-11-21T03:11:58;21.10;;;9.80;;
81648;SDS011;71057;51.436;6.768;2023-11-21T03:14:23;15.43;;;9.03;;
81648;SDS011;71057;51.436;6.768;2023-11-21T03:16:49;16.48;;;10.07;;
81648;SDS011;71057;51.436;6.768;2023-11-21T03:19:14;20.90;;;9.93;;
81648;SDS011;71057;51.436;6.768;2023-11-21T03:21:40;17.35;;;10.35;;
81648;SDS011;71057;51.436;6.768;2023-11-21T03:24:06;20.75;;;10.40;;
81648;SDS011;71057;51.436;6.768;2023-11-21T03:26:32;22.83;;;10.65;;
81648;SDS011;71057;51.436;6.768;2023-11-21T03:28:57;23.13;;;10.82;;
81648;SDS011;71057;51.436;6.768;2023-11-21T03:31:23;20.30;;;10.27;;
81648;SDS011;71057;51.436;6.768;2023-11-21T03:33:48;15.17;;;9.50;;
81648;SDS011;71057;51.436;6.768;2023-11-21T03:36:13;24.38;;;11.82;;
81648;SDS011;71057;51.436;6.768;2023-11-21T03:38:43;19.80;;;10.73;;
81648;SDS011;71057;51.436;6.768;2023-11-21T03:41:08;21.20;;;10.13;;
81648;SDS011;71057;51.436;6.768;2023-11-21T03:43:36;22.42;;;12.90;;
81648;SDS011;71057;51.436;6.768;2023-11-21T03:46:02;20.77;;;11.00;;
81648;SDS011;71057;51.436;6.768;2023-11-21T03:48:28;19.80;;;10.77;;
81648;SDS011;71057;51.436;6.768;2023-11-21T03:50:53;30.40;;;12.07;;
81648;SDS011;71057;51.436;6.768;2023-11-21T03:53:18;21.03;;;11.40;;
81648;SDS011;71057;51.436;6.768;2023-11-21T03:55:44;20.63;;;10.60;;
81648;SDS011;71057;51.436;6.768;2023-11-21T03:58:09;23.73;;;11.43;;
81648;SDS011;71057;51.436;6.768;2023-11-21T04:00:34;20.57;;;11.40;;
81648;SDS011;71057;51.436;6.768;2023-11-21T04:02:59;23.43;;;11.70;;
81648;SDS011;71057;51.436;6.768;2023-11-21T04:05:25;20.47;;;11.63;;
81648;SDS011;71057;51.436;6.768;2023-11-21T04:07:50;20.60;;;10.47;;
81648;SDS011;71057;51.436;6.768;2023-11-21T04:10:16;18.80;;;11.90;;
81648;SDS011;71057;51.436;6.768;2023-11-21T04:12:41;19.33;;;11.02;;
81648;SDS011;71057;51.436;6.768;2023-11-21T04:15:07;20.50;;;11.73;;
81648;SDS011;71057;51.436;6.768;2023-11-21T04:17:34;22.73;;;12.05;;
81648;SDS011;71057;51.436;6.768;2023-11-21T04:19:59;22.40;;;11.68;;
81648;SDS011;71057;51.436;6.768;2023-11-21T04:22:24;19.10;;;9.43;;
81648;SDS011;71057;51.436;6.768;2023-11-21T04:24:50;20.00;;;11.57;;
81648;SDS011;71057;51.436;6.768;2023-11-21T04:27:15;21.60;;;10.63;;
81648;SDS011;71057;51.436;6.768;2023-11-21T04:29:43;19.33;;;10.75;;
81648;SDS011;71057;51.436;6.768;2023-11-21T04:32:08;18.63;;;10.23;;
81648;SDS011;71057;51.436;6.768;2023-11-21T04:34:33;23.13;;;11.98;;
81648;SDS011;71057;51.436;6.768;2023-11-21T04:36:59;23.38;;;11.50;;
81648;SDS011;71057;51.436;6.768;2023-11-21T04:39:25;22.80;;;12.00;;
81648;SDS011;71057;51.436;6.768;2023-11-21T04:41:51;22.05;;;11.10;;
81648;SDS011;71057;51.436;6.768;2023-11-21T04:44:16;23.63;;;11.40;;
81648;SDS011;71057;51.436;6.768;2023-11-21T04:46:42;23.05;;;11.60;;
81648;SDS011;71057;51.436;6.768;2023-11-21T04:49:08;24.45;;;12.52;;
81648;SDS011;71057;51.436;6.768;2023-11-21T04:51:34;21.02;;;11.85;;
81648;SDS011;71057;51.436;6.768;2023-11-21T04:53:59;28.17;;;12.10;;
81648;SDS011;71057;51.436;6.768;2023-11-21T04:56:24;22.03;;;10.97;;
81648;SDS011;71057;51.436;6.768;2023-11-21T04:58:50;27.08;;;13.48;;
81648;SDS011;71057;51.436;6.768;2023-11-21T05:01:15;22.17;;;12.10;;
81648;SDS011;71057;51.436;6.768;2023-11-21T05:03:41;23.20;;;13.33;;
81648;SDS011;71057;51.436;6.768;2023-11-21T05:06:06;25.77;;;14.38;;
81648;SDS011;71057;51.436;6.768;2023-11-21T05:13:26;25.43;;;11.97;;
81648;SDS011;71057;51.436;6.768;2023-11-21T05:15:53;28.48;;;13.90;;
81648;SDS011;71057;51.436;6.768;2023-11-21T05:18:24;29.17;;;14.73;;
81648;SDS011;71057;51.436;6.768;2023-11-21T05:20:52;25.05;;;12.20;;
81648;SDS011;71057;51.436;6.768;2023-11-21T05:23:18;30.95;;;13.35;;
81648;SDS011;71057;51.436;6.768;2023-11-21T05:25:44;27.77;;;13.65;;
81648;SDS011;71057;51.436;6.768;2023-11-21T05:28:09;27.90;;;13.83;;
81648;SDS011;71057;51.436;6.768;2023-11-21T05:30:35;29.85;;;14.68;;
81648;SDS011;71057;51.436;6.768;2023-11-21T05:33:00;27.38;;;13.27;;
81648;SDS011;71057;51.436;6.768;2023-11-21T05:35:25;31.07;;;13.23;;
81648;SDS011;71057;51.436;6.768;2023-11-21T05:37:51;30.60;;;13.35;;
81648;SDS011;71057;51.436;6.768;2023-11-21T05:40:17;27.73;;;13.55;;
81648;SDS011;71057;51.436;6.768;2023-11-21T05:42:42;28.63;;;12.55;;
81648;SDS011;71057;51.436;6.768;2023-11-21T05:45:09;28.98;;;14.25;;
81648;SDS011;71057;51.436;6.768;2023-11-21T05:47:36;24.77;;;12.73;;
81648;SDS011;71057;51.436;6.768;2023-11-21T05:50:03;31.25;;;13.85;;
81648;SDS011;71057;51.436;6.768;2023-11-21T05:52:30;32.83;;;14.77;;
81648;SDS011;71057;51.436;6.768;2023-11-21T05:54:57;30.30;;;16.08;;
81648;SDS011;71057;51.436;6.768;2023-11-21T05:57:22;30.88;;;15.20;;
81648;SDS011;71057;51.436;6.768;2023-11-21T05:59:48;37.60;;;16.93;;
81648;SDS011;71057;51.436;6.768;2023-11-21T06:02:13;29.63;;;13.77;;
81648;SDS011;71057;51.436;6.768;2023-11-21T06:04:38;28.73;;;15.13;;
81648;SDS011;71057;51.436;6.768;2023-11-21T06:07:04;30.77;;;15.30;;
81648;SDS011;71057;51.436;6.768;2023-11-21T06:09:29;30.00;;;14.02;;
81648;SDS011;71057;51.436;6.768;2023-11-21T06:11:54;33.93;;;15.67;;
81648;SDS011;71057;51.436;6.768;2023-11-21T06:14:20;35.15;;;16.60;;
81648;SDS011;71057;51.436;6.768;2023-11-21T06:16:47;38.92;;;15.30;;
81648;SDS011;71057;51.436;6.768;2023-11-21T06:19:12;31.52;;;14.48;;
81648;SDS011;71057;51.436;6.768;2023-11-21T06:21:37;35.90;;;14.40;;
81648;SDS011;71057;51.436;6.768;2023-11-21T06:24:03;33.03;;;14.05;;
81648;SDS011;71057;51.436;6.768;2023-11-21T06:26:29;32.47;;;14.93;;
81648;SDS011;71057;51.436;6.768;2023-11-21T06:28:54;29.77;;;15.23;;
81648;SDS011;71057;51.436;6.768;2023-11-21T06:31:20;35.47;;;13.95;;
81648;SDS011;71057;51.436;6.768;2023-11-21T06:33:46;47.05;;;16.20;;
81648;SDS011;71057;51.436;6.768;2023-11-21T06:36:12;53.08;;;19.30;;
81648;SDS011;71057;51.436;6.768;2023-11-21T06:38:37;28.43;;;15.03;;
81648;SDS011;71057;51.436;6.768;2023-11-21T06:41:02;34.67;;;14.63;;
81648;SDS011;71057;51.436;6.768;2023-11-21T06:43:29;30.95;;;14.68;;
81648;SDS011;71057;51.436;6.768;2023-11-21T06:45:56;39.80;;;16.63;;
81648;SDS011;71057;51.436;6.768;2023-11-21T06:48:21;32.78;;;14.15;;
81648;SDS011;71057;51.436;6.768;2023-11-21T06:50:47;53.70;;;17.03;;
81648;SDS011;71057;51.436;6.768;2023-11-21T06:53:12;56.20;;;17.63;;
81648;SDS011;71057;51.436;6.768;2023-11-21T06:55:38;52.67;;;18.48;;
81648;SDS011;71057;51.436;6.768;2023-11-21T06:58:04;45.63;;;16.45;;
81648;SDS011;71057;51.436;6.768;2023-11-21T07:00:30;46.65;;;16.65;;
81648;SDS011;71057;51.436;6.768;2023-11-21T07:02:55;45.30;;;17.80;;
81648;SDS011;71057;51.436;6.768;2023-11-21T07:05:20;40.37;;;16.83;;
81648;SDS011;71057;51.436;6.768;2023-11-21T07:07:47;47.00;;;17.15;;
81648;SDS011;71057;51.436;6.768;2023-11-21T07:10:13;40.92;;;16.63;;
81648;SDS011;71057;51.436;6.768;2023-11-21T07:12:39;62.03;;;20.20;;
81648;SDS011;71057;51.436;6.768;2023-11-21T07:15:05;37.30;;;15.73;;
81648;SDS011;71057;51.436;6.768;2023-11-21T07:17:34;36.47;;;16.42;;
81648;SDS011;71057;51.436;6.768;2023-11-21T07:20:00;37.60;;;15.13;;
81648;SDS011;71057;51.436;6.768;2023-11-21T07:22:26;48.83;;;17.65;;
81648;SDS011;71057;51.436;6.768;2023-11-21T07:24:51;36.97;;;17.05;;
81648;SDS011;71057;51.436;6.768;2023-11-21T07:27:17;61.00;;;20.03;;
81648;SDS011;71057;51.436;6.768;2023-11-21T07:29:43;36.17;;;15.50;;
81648;SDS011;71057;51.436;6.768;2023-11-21T07:32:08;35.00;;;15.27;;
81648;SDS011;71057;51.436;6.768;2023-11-21T07:34:38;38.72;;;17.55;;
81648;SDS011;71057;51.436;6.768;2023-11-21T07:37:03;32.30;;;15.47;;
81648;SDS011;71057;51.436;6.768;2023-11-21T07:39:28;34.03;;;15.07;;
81648;SDS011;71057;51.436;6.768;2023-11-21T07:41:54;33.30;;;16.13;;
81648;SDS011;71057;51.436;6.768;2023-11-21T07:44:20;36.45;;;15.40;;
81648;SDS011;71057;51.436;6.768;2023-11-21T07:46:45;33.50;;;15.65;;
81648;SDS011;71057;51.436;6.768;2023-11-21T07:49:11;41.00;;;16.75;;
81648;SDS011;71057;51.436;6.768;2023-11-21T07:51:37;34.17;;;15.40;;
81648;SDS011;71057;51.436;6.768;2023-11-21T07:54:02;37.20;;;15.17;;
81648;SDS011;71057;51.436;6.768;2023-11-21T07:56:28;33.20;;;16.15;;
81648;SDS011;71057;51.436;6.768;2023-11-21T07:58:53;42.03;;;16.43;;
81648;SDS011;71057;51.436;6.768;2023-11-21T08:01:19;35.67;;;15.80;;
81648;SDS011;71057;51.436;6.768;2023-11-21T08:03:44;44.53;;;17.30;;
81648;SDS011;71057;51.436;6.768;2023-11-21T08:06:09;35.83;;;15.93;;
81648;SDS011;71057;51.436;6.768;2023-11-21T08:08:35;29.27;;;15.33;;
81648;SDS011;71057;51.436;6.768;2023-11-21T08:11:00;28.73;;;15.13;;
81648;SDS011;71057;51.436;6.768;2023-11-21T08:13:26;30.92;;;15.55;;
81648;SDS011;71057;51.436;6.768;2023-11-21T08:15:56;30.58;;;14.40;;
81648;SDS011;71057;51.436;6.768;2023-11-21T08:18:29;31.48;;;13.70;;
81648;SDS011;71057;51.436;6.768;2023-11-21T08:20:55;29.38;;;14.27;;
81648;SDS011;71057;51.436;6.768;2023-11-21T08:23:21;29.60;;;14.75;;
81648;SDS011;71057;51.436;6.768;2023-11-21T08:25:53;33.47;;;16.35;;
81648;SDS011;71057;51.436;6.768;2023-11-21T08:28:19;37.25;;;15.88;;
81648;SDS011;71057;51.436;6.768;2023-11-21T08:33:12;30.43;;;14.80;;
81648;SDS011;71057;51.436;6.768;2023-11-21T08:35:38;32.70;;;14.70;;
81648;SDS011;71057;51.436;6.768;2023-11-21T08:38:03;34.43;;;15.07;;
81648;SDS011;71057;51.436;6.768;2023-11-21T08:40:29;31.65;;;16.10;;
81648;SDS011;71057;51.436;6.768;2023-11-21T08:42:55;32.33;;;14.20;;
81648;SDS011;71057;51.436;6.768;2023-11-21T08:45:23;27.30;;;13.18;;
81648;SDS011;71057;51.436;6.768;2023-11-21T08:47:48;24.52;;;12.55;;
81648;SDS011;71057;51.436;6.768;2023-11-21T08:50:14;27.38;;;13.93;;
81648;SDS011;71057;51.436;6.768;2023-11-21T08:52:40;31.55;;;15.18;;
81648;SDS011;71057;51.436;6.768;2023-11-21T08:55:06;28.73;;;14.45;;
81648;SDS011;71057;51.436;6.768;2023-11-21T08:57:37;29.40;;;13.98;;
81648;SDS011;71057;51.436;6.768;2023-11-21T09:00:04;26.40;;;12.75;;
81648;SDS011;71057;51.436;6.768;2023-11-21T09:02:32;29.08;;;12.93;;
81648;SDS011;71057;51.436;6.768;2023-11-21T09:04:58;26.25;;;13.93;;
81648;SDS011;71057;51.436;6.768;2023-11-21T09:07:24;35.13;;;15.82;;
81648;SDS011;71057;51.436;6.768;2023-11-21T09:09:49;34.67;;;15.90;;
81648;SDS011;71057;51.436;6.768;2023-11-21T09:12:15;30.20;;;14.60;;
81648;SDS011;71057;51.436;6.768;2023-11-21T09:14:42;33.00;;;15.45;;
81648;SDS011;71057;51.436;6.768;2023-11-21T09:17:09;27.00;;;13.90;;
81648;SDS011;71057;51.436;6.768;2023-11-21T09:19:37;28.65;;;14.25;;
81648;SDS011;71057;51.436;6.768;2023-11-21T09:22:02;28.50;;;14.38;;
81648;SDS011;71057;51.436;6.768;2023-11-21T09:24:28;27.05;;;13.13;;
81648;SDS011;71057;51.436;6.768;2023-11-21T09:26:55;36.03;;;15.70;;
81648;SDS011;71057;51.436;6.768;2023-11-21T09:29:22;31.15;;;14.85;;
81648;SDS011;71057;51.436;6.768;2023-11-21T09:31:47;31.85;;;14.25;;
81648;SDS011;71057;51.436;6.768;2023-11-21T09:34:13;29.63;;;14.77;;
81648;SDS011;71057;51.436;6.768;2023-11-21T09:36:38;31.73;;;14.60;;
81648;SDS011;71057;51.436;6.768;2023-11-21T09:39:04;30.98;;;15.40;;
81648;SDS011;71057;51.436;6.768;2023-11-21T09:41:34;28.30;;;15.02;;
81648;SDS011;71057;51.436;6.768;2023-11-21T09:44:09;38.50;;;17.90;;
81648;SDS011;71057;51.436;6.768;2023-11-21T09:46:39;41.25;;;18.23;;
81648;SDS011;71057;51.436;6.768;2023-11-21T09:49:08;34.38;;;17.92;;
81648;SDS011;71057;51.436;6.768;2023-11-21T09:51:38;41.80;;;17.67;;
81648;SDS011;71057;51.436;6.768;2023-11-21T09:54:07;42.40;;;20.77;;
81648;SDS011;71057;51.436;6.768;2023-11-21T09:56:35;40.40;;;18.63;;
81648;SDS011;71057;51.436;6.768;2023-11-21T09:59:01;37.75;;;16.60;;
81648;SDS011;71057;51.436;6.768;2023-11-21T10:01:31;35.22;;;16.88;;
81648;SDS011;71057;51.436;6.768;2023-11-21T10:03:57;36.00;;;16.40;;
81648;SDS011;71057;51.436;6.768;2023-11-21T10:06:24;42.13;;;18.08;;
81648;SDS011;71057;51.436;6.768;2023-11-21T10:08:52;36.17;;;16.75;;
81648;SDS011;71057;51.436;6.768;2023-11-21T10:11:18;35.25;;;17.00;;
81648;SDS011;71057;51.436;6.768;2023-11-21T10:13:46;36.13;;;16.38;;
81648;SDS011;71057;51.436;6.768;2023-11-21T10:16:15;31.25;;;16.52;;
81648;SDS011;71057;51.436;6.768;2023-11-21T10:18:46;32.30;;;16.65;;
81648;SDS011;71057;51.436;6.768;2023-11-21T10:21:17;40.15;;;17.67;;
81648;SDS011;71057;51.436;6.768;2023-11-21T10:23:43;37.72;;;18.77;;
81648;SDS011;71057;51.436;6.768;2023-11-21T10:26:09;38.35;;;18.40;;
81648;SDS011;71057;51.436;6.768;2023-11-21T10:28:41;46.10;;;21.23;;
81648;SDS011;71057;51.436;6.768;2023-11-21T10:31:19;44.67;;;20.63;;
81648;SDS011;71057;51.436;6.768;2023-11-21T10:33:44;34.10;;;16.90;;
81648;SDS011;71057;51.436;6.768;2023-11-21T10:36:10;35.53;;;16.80;;
81648;SDS011;71057;51.436;6.768;2023-11-21T10:38:41;37.53;;;16.83;;
81648;SDS011;71057;51.436;6.768;2023-11-21T10:41:10;35.80;;;16.88;;
81648;SDS011;71057;51.436;6.768;2023-11-21T10:43:37;37.90;;;18.65;;
81648;SDS011;71057;51.436;6.768;2023-11-21T10:46:03;40.85;;;19.13;;
81648;SDS011;71057;51.436;6.768;2023-11-21T10:48:30;40.85;;;19.33;;
81648;SDS011;71057;51.436;6.768;2023-11-21T10:50:56;48.05;;;20.60;;
81648;SDS011;71057;51.436;6.768;2023-11-21T10:53:22;46.08;;;21.63;;
81648;SDS011;71057;51.436;6.768;2023-11-21T10:55:48;39.13;;;20.08;;
81648;SDS011;71057;51.436;6.768;2023-11-21T10:58:14;40.33;;;19.38;;
81648;SDS011;71057;51.436;6.768;2023-11-21T11:00:39;46.22;;;20.10;;
81648;SDS011;71057;51.436;6.768;2023-11-21T11:03:05;41.60;;;21.33;;
81648;SDS011;71057;51.436;6.768;2023-11-21T11:05:38;42.67;;;21.05;;
81648;SDS011;71057;51.436;6.768;2023-11-21T11:10:33;37.30;;;18.38;;
81648;SDS011;71057;51.436;6.768;2023-11-21T11:12:59;37.78;;;17.75;;
81648;SDS011;71057;51.436;6.768;2023-11-21T11:15:26;39.58;;;19.00;;
81648;SDS011;71057;51.436;6.768;2023-11-21T11:17:52;47.60;;;20.95;;
81648;SDS011;71057;51.436;6.768;2023-11-21T11:20:25;42.33;;;20.95;;
81648;SDS011;71057;51.436;6.768;2023-11-21T11:25:33;44.30;;;22.35;;
81648;SDS011;71057;51.436;6.768;2023-11-21T11:28:19;46.78;;;19.38;;
81648;SDS011;71057;51.436;6.768;2023-11-21T11:30:53;45.15;;;21.35;;
81648;SDS011;71057;51.436;6.768;2023-11-21T11:38:59;45.50;;;22.90;;
81648;SDS011;71057;51.436;6.768;2023-11-21T11:41:27;43.78;;;22.33;;
81648;SDS011;71057;51.436;6.768;2023-11-21T11:43:57;43.83;;;23.33;;
81648;SDS011;71057;51.436;6.768;2023-11-21T11:46:40;44.25;;;19.92;;
81648;SDS011;71057;51.436;6.768;2023-11-21T11:49:06;49.42;;;21.75;;
81648;SDS011;71057;51.436;6.768;2023-11-21T11:51:33;41.88;;;21.20;;
81648;SDS011;71057;51.436;6.768;2023-11-21T11:54:00;45.80;;;22.67;;
81648;SDS011;71057;51.436;6.768;2023-11-21T11:59:04;40.17;;;20.70;;
81648;SDS011;71057;51.436;6.768;2023-11-21T12:01:31;39.92;;;19.90;;
81648;SDS011;71057;51.436;6.768;2023-11-21T12:06:59;37.65;;;17.05;;
81648;SDS011;71057;51.436;6.768;2023-11-21T12:09:28;35.95;;;18.83;;
81648;SDS011;71057;51.436;6.768;2023-11-21T12:11:55;36.42;;;18.40;;
81648;SDS011;71057;51.436;6.768;2023-11-21T12:14:21;40.00;;;17.92;;
81648;SDS011;71057;51.436;6.768;2023-11-21T12:16:48;40.53;;;17.42;;
81648;SDS011;71057;51.436;6.768;2023-11-21T12:19:14;41.38;;;19.90;;
81648;SDS011;71057;51.436;6.768;2023-11-21T12:21:39;42.67;;;19.98;;
81648;SDS011;71057;51.436;6.768;2023-11-21T12:24:06;42.67;;;19.52;;
81648;SDS011;71057;51.436;6.768;2023-11-21T12:26:34;40.65;;;18.77;;
81648;SDS011;71057;51.436;6.768;2023-11-21T12:29:01;43.50;;;21.33;;
81648;SDS011;71057;51.436;6.768;2023-11-21T12:31:29;38.80;;;19.95;;
81648;SDS011;71057;51.436;6.768;2023-11-21T12:33:54;35.03;;;19.55;;
81648;SDS011;71057;51.436;6.768;2023-11-21T12:36:21;35.72;;;18.05;;
81648;SDS011;71057;51.436;6.768;2023-11-21T12:38:47;37.45;;;19.25;;
81648;SDS011;71057;51.436;6.768;2023-11-21T12:41:12;36.38;;;19.08;;
81648;SDS011;71057;51.436;6.768;2023-11-21T12:43:37;42.55;;;20.02;;
81648;SDS011;71057;51.436;6.768;2023-11-21T12:46:07;38.53;;;18.48;;
81648;SDS011;71057;51.436;6.768;2023-11-21T12:51:13;36.78;;;15.98;;
81648;SDS011;71057;51.436;6.768;2023-11-21T12:53:41;21.95;;;10.80;;
81648;SDS011;71057;51.436;6.768;2023-11-21T12:56:11;19.60;;;10.95;;
81648;SDS011;71057;51.436;6.768;2023-11-21T12:58:37;19.20;;;8.82;;
81648;SDS011;71057;51.436;6.768;2023-11-21T13:01:07;18.73;;;9.60;;
81648;SDS011;71057;51.436;6.768;2023-11-21T13:03:39;15.77;;;9.38;;
81648;SDS011;71057;51.436;6.768;2023-11-21T13:06:05;18.92;;;9.68;;
81648;SDS011;71057;51.436;6.768;2023-11-21T13:08:32;19.25;;;9.90;;
81648;SDS011;71057;51.436;6.768;2023-11-21T13:10:58;18.40;;;9.48;;
81648;SDS011;71057;51.436;6.768;2023-11-21T13:13:24;19.05;;;10.00;;
81648;SDS011;71057;51.436;6.768;2023-11-21T13:15:54;18.10;;;9.52;;
81648;SDS011;71057;51.436;6.768;2023-11-21T13:18:21;22.05;;;11.57;;
81648;SDS011;71057;51.436;6.768;2023-11-21T13:20:47;20.30;;;10.27;;
81648;SDS011;71057;51.436;6.768;2023-11-21T13:23:12;15.50;;;8.60;;
81648;SDS011;71057;51.436;6.768;2023-11-21T13:25:39;15.93;;;8.02;;
81648;SDS011;71057;51.436;6.768;2023-11-21T13:28:06;12.68;;;6.45;;
81648;SDS011;71057;51.436;6.768;2023-11-21T13:30:33;13.95;;;6.82;;
81648;SDS011;71057;51.436;6.768;2023-11-21T13:33:02;11.65;;;6.43;;
81648;SDS011;71057;51.436;6.768;2023-11-21T13:35:31;12.93;;;6.80;;
81648;SDS011;71057;51.436;6.768;2023-11-21T13:38:12;9.15;;;5.32;;
81648;SDS011;71057;51.436;6.768;2023-11-21T13:40:46;12.35;;;7.03;;
81648;SDS011;71057;51.436;6.768;2023-11-21T13:43:14;11.38;;;7.18;;
81648;SDS011;71057;51.436;6.768;2023-11-21T13:45:44;12.48;;;7.22;;
81648;SDS011;71057;51.436;6.768;2023-11-21T13:48:11;12.88;;;7.00;;
81648;SDS011;71057;51.436;6.768;2023-11-21T13:50:41;14.55;;;6.85;;
81648;SDS011;71057;51.436;6.768;2023-11-21T13:53:35;11.60;;;6.95;;
81648;SDS011;71057;51.436;6.768;2023-11-21T13:56:02;12.27;;;6.60;;
81648;SDS011;71057;51.436;6.768;2023-11-21T13:58:28;12.45;;;6.88;;
81648;SDS011;71057;51.436;6.768;2023-11-21T14:01:16;13.18;;;7.40;;
81648;SDS011;71057;51.436;6.768;2023-11-21T14:03:57;13.32;;;7.10;;
81648;SDS011;71057;51.436;6.768;2023-11-21T14:09:18;13.70;;;7.65;;
81648;SDS011;71057;51.436;6.768;2023-11-21T14:11:51;16.05;;;9.02;;
81648;SDS011;71057;51.436;6.768;2023-11-21T14:14:19;13.98;;;7.53;;
81648;SDS011;71057;51.436;6.768;2023-11-21T14:16:45;15.10;;;8.40;;
81648;SDS011;71057;51.436;6.768;2023-11-21T14:19:11;13.65;;;8.45;;
81648;SDS011;71057;51.436;6.768;2023-11-21T14:21:43;15.55;;;8.80;;
81648;SDS011;71057;51.436;6.768;2023-11-21T14:24:09;14.32;;;8.82;;
81648;SDS011;71057;51.436;6.768;2023-11-21T14:29:02;14.73;;;8.40;;
81648;SDS011;71057;51.436;6.768;2023-11-21T14:31:28;17.85;;;8.73;;
81648;SDS011;71057;51.436;6.768;2023-11-21T14:33:55;14.45;;;8.55;;
81648;SDS011;71057;51.436;6.768;2023-11-21T14:36:20;18.02;;;9.40;;
81648;SDS011;71057;51.436;6.768;2023-11-21T14:38:45;15.83;;;9.63;;
81648;SDS011;71057;51.436;6.768;2023-11-21T14:41:11;14.93;;;8.82;;
81648;SDS011;71057;51.436;6.768;2023-11-21T14:43:37;13.50;;;7.88;;
81648;SDS011;71057;51.436;6.768;2023-11-21T14:46:04;12.98;;;7.80;;
81648;SDS011;71057;51.436;6.768;2023-11-21T14:48:33;14.38;;;8.65;;
81648;SDS011;71057;51.436;6.768;2023-11-21T14:51:08;16.10;;;8.55;;
81648;SDS011;71057;51.436;6.768;2023-11-21T14:53:55;12.90;;;7.55;;
81648;SDS011;71057;51.436;6.768;2023-11-21T14:56:31;15.05;;;7.95;;